createdAt,value
2019-01-17T00:01:36.733Z,24.57
2019-01-17T00:04:26.634Z,24.70
2019-01-17T00:07:10.199Z,21.80
2019-01-17T00:10:08.639Z,21.87
2019-01-17T00:12:49.633Z,24.67
2019-01-17T00:15:54.229Z,25.70
2019-01-17T00:18:42.019Z,27.27
2019-01-17T00:21:31.631Z,27.70
2019-01-17T00:24:26.009Z,27.53
2019-01-17T00:27:14.539Z,28.80
2019-01-17T00:30:16.154Z,27.53
2019-01-17T00:33:05.379Z,28.20
2019-01-17T00:36:06.483Z,27.83
2019-01-17T00:38:55.793Z,28.10
2019-01-17T00:41:43.609Z,28.60
2019-01-17T00:44:38.695Z,28.60
2019-01-17T00:47:28.209Z,28.37
2019-01-17T00:50:12.934Z,30.43
2019-01-17T00:53:02.230Z,28.03
2019-01-17T00:55:51.506Z,29.93
2019-01-17T00:58:46.759Z,31.00
2019-01-17T01:01:34.554Z,28.53
2019-01-17T01:04:36.224Z,27.73
2019-01-17T01:07:25.394Z,27.93
2019-01-17T01:10:20.839Z,28.50
2019-01-17T01:13:05.244Z,28.57
2019-01-17T01:15:57.199Z,28.93
2019-01-17T01:18:41.054Z,27.93
2019-01-17T01:21:25.013Z,30.33
2019-01-17T01:24:20.394Z,28.77
2019-01-17T01:27:09.194Z,27.50
2019-01-17T01:29:58.389Z,27.30
2019-01-17T01:32:43.214Z,28.07
2019-01-17T01:35:38.259Z,28.87
2019-01-17T01:38:30.544Z,28.53
2019-01-17T01:41:09.144Z,30.47
2019-01-17T01:43:52.033Z,31.10
2019-01-17T01:46:47.109Z,28.57
2019-01-17T01:49:35.434Z,28.83
2019-01-17T01:52:27.549Z,27.97
2019-01-17T01:54:58.219Z,28.17
2019-01-17T01:57:28.754Z,30.10
2019-01-17T01:59:59.288Z,27.77
2019-01-17T02:02:29.709Z,28.93
2019-01-17T02:05:00.299Z,28.80
2019-01-17T02:07:31.064Z,29.63
2019-01-17T02:10:01.589Z,30.03
2019-01-17T02:12:31.989Z,31.03
2019-01-17T02:15:02.394Z,27.57
2019-01-17T02:17:32.884Z,28.27
2019-01-17T02:20:04.946Z,26.80
2019-01-17T02:22:35.474Z,27.70
2019-01-17T02:25:06.534Z,29.67
2019-01-17T02:27:37.154Z,31.10
2019-01-17T02:30:07.916Z,31.67
2019-01-17T02:32:38.326Z,32.17
2019-01-17T02:35:09.084Z,31.17
2019-01-17T02:37:39.645Z,32.30
2019-01-17T02:40:12.094Z,33.03
2019-01-17T02:42:42.600Z,32.63
2019-01-17T02:45:14.855Z,32.23
2019-01-17T02:47:45.216Z,31.80
2019-01-17T02:50:15.684Z,33.00
2019-01-17T02:52:46.214Z,33.17
2019-01-17T02:55:32.489Z,32.27
2019-01-17T02:58:03.130Z,32.33
2019-01-17T03:00:33.775Z,32.90
2019-01-17T03:03:04.137Z,32.50
2019-01-17T03:05:34.589Z,32.00
2019-01-17T03:08:05.084Z,32.63
2019-01-17T03:10:35.519Z,29.87
2019-01-17T03:13:05.990Z,29.13
2019-01-17T03:15:36.380Z,28.03
2019-01-17T03:18:06.989Z,26.67
2019-01-17T03:20:37.645Z,28.27
2019-01-17T03:23:08.217Z,27.20
2019-01-17T03:25:38.734Z,28.70
2019-01-17T03:28:09.581Z,30.80
2019-01-17T03:30:40.013Z,31.13
2019-01-17T03:33:10.321Z,33.07
2019-01-17T03:35:40.917Z,31.87
2019-01-17T03:38:11.314Z,32.33
2019-01-17T03:40:41.755Z,31.27
2019-01-17T03:43:12.194Z,34.10
2019-01-17T03:45:42.774Z,34.53
2019-01-17T03:48:13.209Z,30.77
2019-01-17T03:50:43.728Z,30.27
2019-01-17T03:53:14.409Z,30.87
2019-01-17T03:55:45.162Z,30.10
2019-01-17T03:58:15.594Z,28.33
2019-01-17T04:00:46.069Z,29.50
2019-01-17T04:03:16.520Z,28.47
2019-01-17T04:05:47.116Z,29.03
2019-01-17T04:08:17.690Z,27.97
2019-01-17T04:10:48.174Z,26.70
2019-01-17T04:13:18.753Z,26.87
2019-01-17T04:15:49.184Z,25.07
2019-01-17T04:18:19.854Z,24.33
2019-01-17T04:20:50.332Z,23.73
2019-01-17T04:23:20.884Z,24.03
2019-01-17T04:25:51.256Z,23.03
2019-01-17T04:28:21.919Z,21.77
2019-01-17T04:30:52.399Z,22.57
2019-01-17T04:33:22.960Z,23.40
2019-01-17T04:35:53.494Z,20.70
2019-01-17T04:38:23.915Z,19.23
2019-01-17T04:40:54.544Z,19.77
2019-01-17T04:43:24.972Z,21.03
2019-01-17T04:45:55.419Z,20.60
2019-01-17T04:48:26.243Z,21.73
2019-01-17T04:50:56.689Z,20.80
2019-01-17T04:53:27.109Z,23.10
2019-01-17T04:55:57.771Z,22.90
2019-01-17T04:58:28.333Z,23.33
2019-01-17T05:00:58.713Z,23.27
2019-01-17T05:03:29.039Z,22.30
2019-01-17T05:05:59.520Z,22.67
2019-01-17T05:08:30.024Z,21.50
2019-01-17T05:11:00.343Z,23.83
2019-01-17T05:13:30.800Z,23.37
2019-01-17T05:16:01.259Z,22.47
2019-01-17T05:18:31.814Z,24.43
2019-01-17T05:21:02.356Z,23.77
2019-01-17T05:23:33.040Z,23.93
2019-01-17T05:26:03.439Z,23.37
2019-01-17T05:28:34.029Z,22.37
2019-01-17T05:31:05.218Z,22.07
2019-01-17T05:33:35.630Z,23.10
2019-01-17T05:36:06.294Z,24.53
2019-01-17T05:38:36.646Z,22.80
2019-01-17T05:41:07.004Z,20.50
2019-01-17T05:43:37.534Z,20.40
2019-01-17T05:46:07.954Z,20.27
2019-01-17T05:48:38.589Z,21.00
2019-01-17T05:51:09.109Z,18.67
2019-01-17T05:53:39.534Z,19.63
2019-01-17T05:56:10.039Z,20.37
2019-01-17T05:58:40.659Z,22.27
2019-01-17T06:01:11.219Z,21.07
2019-01-17T06:03:41.654Z,20.63
2019-01-17T06:06:12.133Z,21.03
2019-01-17T06:08:42.649Z,19.80
2019-01-17T06:11:13.219Z,19.13
2019-01-17T06:13:43.674Z,19.43
2019-01-17T06:16:14.138Z,21.03
2019-01-17T06:18:44.714Z,21.67
2019-01-17T06:21:15.244Z,21.27
2019-01-17T06:23:45.659Z,21.57
2019-01-17T06:26:16.031Z,21.53
2019-01-17T06:28:46.515Z,22.77
2019-01-17T06:31:16.859Z,23.03
2019-01-17T06:33:47.249Z,20.47
2019-01-17T06:36:17.714Z,22.77
2019-01-17T06:38:48.039Z,22.67
2019-01-17T06:41:18.673Z,23.53
2019-01-17T06:43:49.239Z,22.67
2019-01-17T06:46:19.733Z,23.57
2019-01-17T06:48:50.184Z,24.50
2019-01-17T06:51:20.783Z,23.43
2019-01-17T06:53:51.355Z,25.60
2019-01-17T06:56:21.729Z,24.67
2019-01-17T06:58:52.264Z,24.67
2019-01-17T07:01:22.639Z,24.53
2019-01-17T07:03:53.163Z,24.53
2019-01-17T07:06:23.769Z,24.50
2019-01-17T07:08:54.278Z,24.50
2019-01-17T07:11:24.664Z,23.27
2019-01-17T07:13:55.155Z,22.57
2019-01-17T07:16:25.724Z,24.93
2019-01-17T07:18:56.440Z,23.13
2019-01-17T07:21:26.979Z,23.37
2019-01-17T07:23:57.474Z,23.10
2019-01-17T07:26:27.809Z,23.27
2019-01-17T07:28:58.394Z,24.07
2019-01-17T07:31:28.824Z,25.23
2019-01-17T07:33:59.224Z,26.43
2019-01-17T07:36:29.695Z,25.70
2019-01-17T07:39:00.217Z,26.70
2019-01-17T07:41:30.699Z,27.43
2019-01-17T07:44:02.229Z,27.70
2019-01-17T07:46:32.814Z,26.00
2019-01-17T07:49:03.379Z,26.90
2019-01-17T07:51:33.874Z,27.37
2019-01-17T07:54:04.298Z,27.03
2019-01-17T07:56:34.654Z,28.03
2019-01-17T07:59:05.239Z,30.37
2019-01-17T08:01:35.829Z,25.70
2019-01-17T08:04:06.274Z,27.80
2019-01-17T08:06:36.729Z,29.13
2019-01-17T08:09:10.238Z,27.20
2019-01-17T08:11:40.748Z,27.70
2019-01-17T08:14:11.360Z,30.30
2019-01-17T08:16:41.959Z,30.63
2019-01-17T08:19:12.434Z,32.70
2019-01-17T08:21:42.984Z,31.33
2019-01-17T08:24:13.549Z,30.33
2019-01-17T08:26:44.084Z,33.03
2019-01-17T08:29:14.434Z,32.90
2019-01-17T08:31:44.788Z,35.60
2019-01-17T08:34:15.369Z,31.87
2019-01-17T08:36:45.779Z,31.13
2019-01-17T08:39:16.260Z,31.73
2019-01-17T08:41:47.015Z,31.47
2019-01-17T08:44:17.429Z,31.73
2019-01-17T08:46:47.849Z,31.10
2019-01-17T08:49:18.319Z,31.40
2019-01-17T08:51:48.644Z,30.03
2019-01-17T08:54:19.063Z,29.13
2019-01-17T08:56:49.594Z,28.57
2019-01-17T08:59:19.969Z,30.33
2019-01-17T09:01:50.459Z,29.87
2019-01-17T09:04:20.889Z,29.27
2019-01-17T09:06:51.239Z,29.87
2019-01-17T09:09:21.764Z,29.00
2019-01-17T09:11:52.169Z,29.00
2019-01-17T09:14:22.650Z,30.63
2019-01-17T09:16:53.199Z,29.87
2019-01-17T09:19:23.699Z,31.23
2019-01-17T09:21:54.234Z,29.83
2019-01-17T09:24:25.009Z,29.77
2019-01-17T09:26:55.458Z,29.87
2019-01-17T09:29:25.859Z,26.97
2019-01-17T09:31:56.239Z,29.17
2019-01-17T09:34:26.775Z,28.13
2019-01-17T09:36:57.254Z,27.10
2019-01-17T09:39:27.718Z,30.27
2019-01-17T09:41:58.174Z,29.87
2019-01-17T09:44:28.514Z,30.70
2019-01-17T09:46:58.959Z,28.87
2019-01-17T09:49:29.374Z,29.27
2019-01-17T09:51:59.829Z,26.80
2019-01-17T09:54:30.240Z,27.47
2019-01-17T09:57:00.684Z,27.70
2019-01-17T09:59:31.144Z,28.97
2019-01-17T10:02:01.549Z,30.73
2019-01-17T10:04:32.064Z,30.00
2019-01-17T10:07:02.516Z,29.40
2019-01-17T10:09:32.909Z,30.50
2019-01-17T10:12:03.384Z,30.20
2019-01-17T10:14:33.829Z,30.87
2019-01-17T10:17:44.064Z,28.73
2019-01-17T10:20:57.186Z,30.60
2019-01-17T10:23:59.759Z,30.17
2019-01-17T10:27:00.186Z,29.30
2019-01-17T10:30:04.554Z,29.20
2019-01-17T10:33:12.919Z,28.93
2019-01-17T10:36:22.926Z,30.67
2019-01-17T10:39:08.675Z,30.53
2019-01-17T10:42:08.815Z,31.57
2019-01-17T10:45:20.059Z,31.93
2019-01-17T10:48:52.199Z,30.80
2019-01-17T10:52:07.034Z,31.30
2019-01-17T10:55:15.244Z,31.10
2019-01-17T10:58:31.136Z,33.47
2019-01-17T11:01:36.118Z,32.10
2019-01-17T11:04:28.699Z,30.33
2019-01-17T11:07:15.266Z,33.30
2019-01-17T11:10:29.128Z,33.13
2019-01-17T11:13:27.546Z,31.33
2019-01-17T11:16:23.387Z,31.97
2019-01-17T11:19:25.265Z,31.30
2019-01-17T11:22:29.400Z,30.57
2019-01-17T11:25:29.077Z,29.50
2019-01-17T11:28:39.394Z,30.87
2019-01-17T11:31:57.356Z,29.43
2019-01-17T11:35:20.196Z,29.03
2019-01-17T11:38:40.383Z,29.30
2019-01-17T11:41:50.374Z,28.90
2019-01-17T11:44:56.179Z,31.77
2019-01-17T11:47:59.988Z,30.47
2019-01-17T11:51:23.814Z,29.47
2019-01-17T11:54:19.864Z,29.97
2019-01-17T11:57:36.609Z,30.43
2019-01-17T12:00:50.724Z,30.57
2019-01-17T12:04:13.448Z,30.07
2019-01-17T12:06:43.890Z,30.10
2019-01-17T12:09:14.564Z,31.00
2019-01-17T12:11:45.178Z,30.67
2019-01-17T12:14:15.678Z,28.93
2019-01-17T12:16:46.174Z,28.93
2019-01-17T12:19:16.894Z,27.77
2019-01-17T12:21:47.634Z,28.77
2019-01-17T12:24:17.999Z,28.73
2019-01-17T12:26:48.569Z,27.67
2019-01-17T12:29:19.004Z,28.33
2019-01-17T12:31:49.394Z,27.53
2019-01-17T12:34:19.829Z,27.87
2019-01-17T12:36:50.266Z,28.17
2019-01-17T12:39:20.749Z,27.87
2019-01-17T12:41:51.308Z,27.63
2019-01-17T12:44:21.694Z,27.10
2019-01-17T12:46:52.174Z,29.03
2019-01-17T12:49:22.694Z,28.97
2019-01-17T12:51:53.099Z,29.87
2019-01-17T12:54:23.515Z,29.63
2019-01-17T12:56:54.321Z,28.70
2019-01-17T12:59:24.866Z,28.83
2019-01-17T13:01:55.374Z,26.20
2019-01-17T13:04:25.818Z,28.67
2019-01-17T13:06:56.295Z,27.13
2019-01-17T13:09:27.103Z,28.77
2019-01-17T13:11:57.648Z,29.20
2019-01-17T13:14:28.519Z,28.10
2019-01-17T13:16:59.049Z,28.07
2019-01-17T13:19:29.749Z,27.87
2019-01-17T13:22:00.429Z,26.20
2019-01-17T13:24:30.974Z,28.13
2019-01-17T13:27:01.456Z,28.80
2019-01-17T13:29:31.932Z,28.73
2019-01-17T13:32:02.337Z,28.07
2019-01-17T13:34:32.789Z,27.47
2019-01-17T13:37:03.499Z,27.37
2019-01-17T13:39:33.975Z,26.80
2019-01-17T13:42:04.764Z,28.57
2019-01-17T13:44:35.399Z,29.80
2019-01-17T13:47:06.015Z,26.67
2019-01-17T13:49:36.634Z,28.03
2019-01-17T13:52:07.044Z,29.00
2019-01-17T13:54:37.819Z,29.50
2019-01-17T13:57:08.328Z,29.23
2019-01-17T13:59:39.104Z,28.80
2019-01-17T14:02:09.779Z,29.40
2019-01-17T14:04:40.494Z,31.10
2019-01-17T14:07:11.006Z,28.17
2019-01-17T14:09:41.493Z,31.77
2019-01-17T14:12:12.080Z,30.47
2019-01-17T14:14:42.779Z,29.60
2019-01-17T14:17:13.324Z,30.33
2019-01-17T14:19:44.119Z,31.63
2019-01-17T14:22:14.639Z,32.50
2019-01-17T14:24:45.219Z,32.77
2019-01-17T14:27:15.719Z,31.63
2019-01-17T14:29:46.134Z,32.83
2019-01-17T14:32:16.634Z,33.77
2019-01-17T14:34:47.174Z,34.40
2019-01-17T14:37:17.729Z,32.67
2019-01-17T14:39:48.349Z,39.30
2019-01-17T14:42:19.124Z,57.53
2019-01-17T14:44:49.804Z,37.93
2019-01-17T14:47:20.394Z,31.47
2019-01-17T14:49:51.054Z,32.57
2019-01-17T14:52:21.589Z,32.73
2019-01-17T14:54:52.419Z,34.13
2019-01-17T14:57:23.394Z,33.20
2019-01-17T14:59:53.773Z,34.07
2019-01-17T15:02:24.174Z,33.70
2019-01-17T15:04:55.819Z,34.73
2019-01-17T15:07:26.371Z,33.10
2019-01-17T15:09:56.914Z,32.20
2019-01-17T15:12:27.478Z,37.70
2019-01-17T15:14:58.179Z,37.97
2019-01-17T15:17:28.649Z,35.90
2019-01-17T15:19:59.179Z,33.90
2019-01-17T15:22:29.724Z,34.87
2019-01-17T15:25:00.394Z,36.00
2019-01-17T15:27:31.139Z,34.47
2019-01-17T15:30:01.571Z,34.77
2019-01-17T15:32:32.081Z,35.30
2019-01-17T15:35:02.714Z,36.60
2019-01-17T15:37:33.320Z,36.10
2019-01-17T15:40:04.113Z,34.67
2019-01-17T15:42:34.658Z,36.47
2019-01-17T15:45:06.083Z,37.07
2019-01-17T15:47:37.889Z,36.50
2019-01-17T15:50:08.591Z,37.73
2019-01-17T15:52:39.089Z,36.80
2019-01-17T15:55:11.509Z,37.60
2019-01-17T15:57:42.014Z,39.07
2019-01-17T16:00:24.789Z,37.83
2019-01-17T16:02:55.403Z,39.13
2019-01-17T16:05:25.919Z,37.53
2019-01-17T16:07:56.606Z,40.20
2019-01-17T16:10:27.154Z,41.70
2019-01-17T16:12:57.609Z,43.43
2019-01-17T16:15:28.980Z,44.97
2019-01-17T16:17:59.629Z,43.73
2019-01-17T16:20:30.299Z,44.80
2019-01-17T16:23:00.874Z,45.93
2019-01-17T16:25:31.384Z,47.40
2019-01-17T16:28:01.784Z,45.30
2019-01-17T16:30:33.954Z,47.07
2019-01-17T16:33:04.724Z,45.37
2019-01-17T16:35:35.239Z,43.43
2019-01-17T16:38:05.815Z,45.73
2019-01-17T16:40:36.274Z,47.17
2019-01-17T16:43:06.739Z,47.57
2019-01-17T16:45:37.334Z,50.93
2019-01-17T16:48:07.799Z,49.50
2019-01-17T16:50:38.364Z,54.27
2019-01-17T16:53:08.803Z,47.93
2019-01-17T16:55:39.479Z,48.40
2019-01-17T16:58:10.064Z,48.07
2019-01-17T17:00:57.319Z,46.73
2019-01-17T17:03:28.023Z,49.00
2019-01-17T17:05:58.589Z,46.90
2019-01-17T17:08:29.189Z,45.33
2019-01-17T17:10:59.859Z,44.67
2019-01-17T17:13:30.314Z,45.67
2019-01-17T17:16:00.879Z,43.47
2019-01-17T17:18:31.304Z,45.57
2019-01-17T17:21:01.989Z,45.10
2019-01-17T17:23:32.802Z,46.73
2019-01-17T17:26:03.525Z,44.67
2019-01-17T17:28:34.389Z,46.93
2019-01-17T17:31:05.184Z,47.67
2019-01-17T17:33:35.709Z,47.93
2019-01-17T17:36:06.485Z,48.77
2019-01-17T17:38:37.143Z,48.90
2019-01-17T17:41:07.594Z,48.73
2019-01-17T17:43:38.014Z,48.73
2019-01-17T17:46:08.645Z,48.87
2019-01-17T17:48:39.069Z,47.83
2019-01-17T17:51:09.729Z,47.30
2019-01-17T17:53:40.594Z,46.63
2019-01-17T17:56:12.794Z,46.87
2019-01-17T17:58:43.739Z,47.13
2019-01-17T18:01:25.524Z,48.93
2019-01-17T18:03:56.414Z,46.37
2019-01-17T18:06:26.955Z,46.67
2019-01-17T18:08:57.667Z,50.07
2019-01-17T18:11:28.134Z,46.47
2019-01-17T18:13:58.743Z,45.50
2019-01-17T18:16:29.474Z,46.93
2019-01-17T18:19:00.219Z,46.40
2019-01-17T18:21:31.074Z,49.07
2019-01-17T18:24:01.989Z,47.10
2019-01-17T18:26:32.878Z,51.03
2019-01-17T18:29:03.679Z,48.17
2019-01-17T18:31:34.299Z,47.77
2019-01-17T18:34:04.688Z,47.17
2019-01-17T18:36:35.264Z,47.20
2019-01-17T18:39:11.509Z,46.77
2019-01-17T18:41:42.169Z,51.50
2019-01-17T18:44:12.684Z,52.27
2019-01-17T18:46:43.191Z,51.40
2019-01-17T18:49:14.045Z,53.63
2019-01-17T18:51:45.495Z,51.57
2019-01-17T18:54:16.085Z,49.30
2019-01-17T18:56:46.629Z,50.47
2019-01-17T18:59:17.166Z,49.50
2019-01-17T19:01:47.642Z,52.20
2019-01-17T19:04:18.384Z,51.97
2019-01-17T19:06:48.903Z,50.53
2019-01-17T19:09:19.419Z,47.90
2019-01-17T19:11:50.169Z,47.90
2019-01-17T19:14:20.568Z,46.23
2019-01-17T19:16:51.055Z,49.90
2019-01-17T19:19:21.550Z,47.97
2019-01-17T19:21:52.049Z,47.13
2019-01-17T19:24:22.634Z,46.77
2019-01-17T19:26:53.274Z,51.50
2019-01-17T19:29:24.303Z,46.83
2019-01-17T19:31:54.841Z,49.77
2019-01-17T19:34:25.614Z,45.97
2019-01-17T19:36:56.514Z,48.77
2019-01-17T19:39:27.214Z,60.70
2019-01-17T19:41:57.784Z,46.63
2019-01-17T19:44:28.374Z,51.10
2019-01-17T19:46:58.984Z,56.17
2019-01-17T19:49:29.488Z,49.13
2019-01-17T19:51:59.909Z,43.43
2019-01-17T19:54:30.599Z,45.83
2019-01-17T19:57:01.034Z,44.13
2019-01-17T19:59:31.889Z,47.03
2019-01-17T20:02:02.664Z,43.17
2019-01-17T20:04:33.155Z,44.27
2019-01-17T20:07:04.609Z,45.27
2019-01-17T20:09:35.255Z,45.47
2019-01-17T20:12:06.504Z,41.10
2019-01-17T20:14:37.189Z,41.83
2019-01-17T20:17:08.114Z,44.83
2019-01-17T20:19:38.781Z,42.83
2019-01-17T20:22:09.399Z,43.20
2019-01-17T20:24:40.219Z,42.73
2019-01-17T20:27:11.279Z,44.20
2019-01-17T20:29:42.869Z,40.57
2019-01-17T20:32:18.748Z,42.27
2019-01-17T20:34:46.039Z,42.67
2019-01-17T20:37:16.809Z,43.03
2019-01-17T20:39:47.604Z,43.40
2019-01-17T20:42:18.360Z,44.83
2019-01-17T20:44:48.950Z,48.13
2019-01-17T20:47:19.734Z,46.30
2019-01-17T20:49:50.935Z,48.87
2019-01-17T20:52:21.739Z,47.23
2019-01-17T20:54:52.710Z,45.17
2019-01-17T20:57:24.165Z,42.73
2019-01-17T20:59:55.330Z,42.67
2019-01-17T21:02:26.199Z,41.37
2019-01-17T21:04:57.104Z,42.30
2019-01-17T21:07:30.679Z,41.60
2019-01-17T21:10:02.310Z,42.23
2019-01-17T21:12:33.354Z,44.30
2019-01-17T21:15:04.914Z,42.37
2019-01-17T21:17:35.974Z,43.70
2019-01-17T21:20:07.464Z,43.30
2019-01-17T21:22:38.250Z,41.57
2019-01-17T21:25:12.240Z,42.23
2019-01-17T21:27:43.319Z,43.17
2019-01-17T21:30:17.521Z,41.17
2019-01-17T21:32:48.289Z,41.03
2019-01-17T21:35:18.993Z,42.63
2019-01-17T21:37:49.838Z,42.97
2019-01-17T21:40:21.484Z,44.90
2019-01-17T21:42:52.310Z,47.00
2019-01-17T21:45:23.089Z,47.03
2019-01-17T21:47:53.849Z,48.33
2019-01-17T21:50:27.124Z,51.70
2019-01-17T21:52:58.213Z,52.67
2019-01-17T21:55:28.909Z,52.27
2019-01-17T21:57:59.805Z,53.60
2019-01-17T22:00:30.623Z,56.50
2019-01-17T22:03:01.249Z,56.27
2019-01-17T22:05:32.224Z,54.97
2019-01-17T22:08:03.404Z,54.33
2019-01-17T22:10:34.053Z,53.47
2019-01-17T22:13:04.619Z,55.37
2019-01-17T22:15:35.198Z,53.83
2019-01-17T22:18:05.760Z,54.03
2019-01-17T22:20:36.238Z,54.17
2019-01-17T22:23:06.928Z,55.63
2019-01-17T22:25:37.500Z,54.00
2019-01-17T22:28:08.139Z,52.13
2019-01-17T22:30:38.870Z,54.40
2019-01-17T22:33:09.869Z,51.10
2019-01-17T22:35:40.309Z,49.70
2019-01-17T22:38:11.123Z,51.00
2019-01-17T22:40:41.749Z,51.77
2019-01-17T22:43:12.399Z,54.53
2019-01-17T22:45:43.098Z,54.60
2019-01-17T22:48:13.678Z,54.47
2019-01-17T22:50:44.103Z,53.63
2019-01-17T22:53:14.683Z,52.73
2019-01-17T22:55:45.234Z,54.90
2019-01-17T22:58:15.719Z,52.77
2019-01-17T23:00:58.783Z,51.43
2019-01-17T23:03:41.285Z,53.20
2019-01-17T23:06:11.904Z,54.30
2019-01-17T23:08:42.338Z,53.33
2019-01-17T23:11:13.040Z,54.60
2019-01-17T23:13:43.751Z,53.13
2019-01-17T23:16:14.258Z,51.93
2019-01-17T23:18:44.888Z,54.03
2019-01-17T23:21:15.524Z,53.23
2019-01-17T23:23:46.119Z,54.70
2019-01-17T23:26:17.013Z,50.83
2019-01-17T23:28:47.719Z,52.43
2019-01-17T23:31:18.514Z,54.83
2019-01-17T23:33:49.074Z,54.03
2019-01-17T23:36:19.733Z,54.60
2019-01-17T23:38:50.249Z,52.90
2019-01-17T23:41:20.999Z,51.37
2019-01-17T23:43:51.514Z,53.47
2019-01-17T23:46:22.023Z,54.60
2019-01-17T23:48:52.544Z,55.27
2019-01-17T23:51:23.129Z,51.57
2019-01-17T23:53:53.559Z,52.60
2019-01-17T23:56:23.948Z,53.40
2019-01-17T23:58:54.385Z,53.77
